Hyalite Weather Station

This weather station provides temperature, wind speed, gust or max wind speed, and wind direction at 9982ft near the summit of Flanders Mountain. This data can be used with temperature and precipitation data from the Shower Falls SNOTEL site. If the data has not been updated recently you can view it directly on datagarrison.com

Elevation
9982ft
Jump to table bottom
Date Time Temperature
deg F
RH, % Wind Speed Wind Gust Wind Direction
11/24/17 09:00 20.1 92 19 35 W - 265
11/24/17 08:00 19.5 95 20 32 W - 263
11/24/17 07:00 19.4 96 16 26 W - 271
11/24/17 06:00 20.9 96 16 30 W - 279
11/24/17 05:00 22.5 96 20 48 W - 272
11/24/17 04:00 25.3 97 25 45 W - 261
11/24/17 03:00 26.7 98 31 51 W - 263
11/24/17 02:00 27.9 97 32 70 W - 263
11/24/17 01:00 28.7 96 24 57 W - 251
11/24/17 00:00 33.0 72 28 54 W - 254
11/23/17 23:00 32.6 70 37 62 SW - 247
11/23/17 22:00 32.9 67 40 61 SW - 247
11/23/17 21:00 33.0 66 41 62 SW - 244
11/23/17 20:00 33.6 64 43 61 W - 248
11/23/17 19:00 34.2 66 43 58 W - 248
11/23/17 18:00 34.6 69 39 65 SW - 244
11/23/17 17:00 34.7 71 30 63 SW - 243
11/23/17 16:00 35.9 69 29 52 SW - 241
11/23/17 15:00 36.5 68 27 50 SW - 246
11/23/17 14:00 37.5 65 29 46 SW - 246
11/23/17 13:00 38.0 65 27 45 SW - 247
11/23/17 12:00 37.4 68 27 46 SW - 247
11/23/17 11:00 37.3 68 34 53 W - 248
11/23/17 10:00 37.0 69 28 49 SW - 246
11/23/17 09:00 36.7 69 30 44 SW - 247
11/23/17 08:00 36.4 65 24 41 SW - 247
11/23/17 07:00 36.9 52 30 48 W - 248
11/23/17 06:00 37.1 55 32 47 W - 253
11/23/17 05:00 37.2 63 33 48 W - 248
11/23/17 04:00 37.8 60 29 46 W - 248
11/23/17 03:00 36.7 68 22 34 SW - 247
11/23/17 02:00 36.8 69 22 32 W - 251
11/23/17 01:00 36.9 69 22 32 W - 250
11/23/17 00:00 35.8 75 20 32 SW - 247
11/22/17 23:00 36.3 75 24 37 W - 248
11/22/17 22:00 35.8 79 27 42 W - 253
11/22/17 21:00 35.9 79 26 37 W - 257
11/22/17 20:00 35.7 81 23 38 W - 254
11/22/17 19:00 36.7 77 20 34 W - 257
11/22/17 18:00 36.0 82 20 34 W - 258
11/22/17 17:00 35.6 87 20 36 W - 248
11/22/17 16:00 34.9 91 16 27 W - 248
11/22/17 15:00 35.4 87 16 27 W - 253
11/22/17 14:00 35.7 85 17 32 W - 258
11/22/17 13:00 36.3 83 21 33 W - 256
11/22/17 12:00 36.6 82 20 36 W - 261
11/22/17 11:00 34.6 90 18 30 W - 251
11/22/17 10:00 33.4 94 21 35 W - 253
11/22/17 09:00 33.1 96 22 32 W - 251
11/22/17 08:00 33.6 92 22 33 W - 258
https://datagarrison.com/users/300034012539980/300234063416550/temp/300234063416550_live.txt